createdAt,value
2023-01-11T00:00:32.412Z,93
2023-01-11T00:01:32.401Z,93
2023-01-11T00:02:32.511Z,94
2023-01-11T00:03:32.402Z,94
2023-01-11T00:04:32.473Z,94
2023-01-11T00:05:32.402Z,94
2023-01-11T00:06:32.459Z,94
2023-01-11T00:07:32.394Z,94
2023-01-11T00:08:43.235Z,94
2023-01-11T00:09:47.179Z,94
2023-01-11T00:10:51.312Z,94
2023-01-11T00:11:55.236Z,94
2023-01-11T00:12:59.199Z,94
2023-01-11T00:14:03.237Z,94
2023-01-11T00:15:07.195Z,94
2023-01-11T00:16:11.248Z,94
2023-01-11T00:17:15.211Z,94
2023-01-11T00:18:19.235Z,94
2023-01-11T00:19:23.239Z,94
2023-01-11T00:20:27.186Z,93
2023-01-11T00:21:31.210Z,93
2023-01-11T00:22:31.468Z,93
2023-01-11T00:23:31.388Z,93
2023-01-11T00:24:31.419Z,93
2023-01-11T00:25:31.246Z,93
2023-01-11T00:26:31.395Z,93
2023-01-11T00:27:31.396Z,93
2023-01-11T00:28:31.402Z,93
2023-01-11T00:29:31.330Z,93
2023-01-11T00:30:31.395Z,93
2023-01-11T00:31:31.483Z,93
2023-01-11T00:32:31.430Z,93
2023-01-11T00:33:31.192Z,93
2023-01-11T00:34:31.379Z,93
2023-01-11T00:35:31.512Z,93
2023-01-11T00:36:31.415Z,93
2023-01-11T00:37:31.201Z,93
2023-01-11T00:38:31.385Z,93
2023-01-11T00:39:31.452Z,93
2023-01-11T00:40:31.417Z,93
2023-01-11T00:41:31.216Z,93
2023-01-11T00:42:31.406Z,93
2023-01-11T00:43:31.415Z,93
2023-01-11T00:44:31.413Z,93
2023-01-11T00:45:31.405Z,93
2023-01-11T00:46:31.436Z,93
2023-01-11T00:47:31.404Z,93
2023-01-11T00:48:31.375Z,93
2023-01-11T00:49:31.210Z,92
2023-01-11T00:50:31.433Z,92
2023-01-11T00:51:31.397Z,92
2023-01-11T00:52:31.385Z,92
2023-01-11T00:53:32.223Z,92
2023-01-11T00:54:35.159Z,92
2023-01-11T00:55:39.160Z,92
2023-01-11T00:56:43.153Z,92
2023-01-11T00:57:47.215Z,92
2023-01-11T00:58:51.135Z,92
2023-01-11T00:59:55.172Z,92
2023-01-11T01:00:59.251Z,92
2023-01-11T01:02:03.170Z,93
2023-01-11T01:03:07.162Z,93
2023-01-11T01:04:11.171Z,93
2023-01-11T01:05:15.169Z,93
2023-01-11T01:06:19.164Z,93
2023-01-11T01:07:23.168Z,93
2023-01-11T01:08:27.140Z,93
2023-01-11T01:09:31.141Z,93
2023-01-11T01:10:31.401Z,93
2023-01-11T01:11:31.444Z,93
2023-01-11T01:12:31.398Z,93
2023-01-11T01:13:31.170Z,93
2023-01-11T01:14:31.431Z,93
2023-01-11T01:15:31.492Z,93
2023-01-11T01:16:31.402Z,93
2023-01-11T01:17:31.161Z,93
2023-01-11T01:18:31.408Z,93
2023-01-11T01:19:31.464Z,93
2023-01-11T01:20:31.374Z,93
2023-01-11T01:21:31.165Z,93
2023-01-11T01:22:31.390Z,93
2023-01-11T01:23:31.381Z,93
2023-01-11T01:24:31.432Z,94
2023-01-11T01:25:31.140Z,94
2023-01-11T01:26:31.418Z,94
2023-01-11T01:27:31.382Z,94
2023-01-11T01:28:31.449Z,94
2023-01-11T01:29:31.149Z,94
2023-01-11T01:30:31.406Z,94
2023-01-11T01:31:31.562Z,94
2023-01-11T01:32:31.397Z,94
2023-01-11T01:33:31.167Z,94
2023-01-11T01:34:31.389Z,94
2023-01-11T01:35:31.395Z,94
2023-01-11T01:36:31.407Z,94
2023-01-11T01:37:31.122Z,94
2023-01-11T01:38:31.411Z,94
2023-01-11T01:39:31.409Z,94
2023-01-11T01:40:31.568Z,94
2023-01-11T01:41:31.220Z,94
2023-01-11T01:42:31.511Z,94
2023-01-11T01:43:31.621Z,94
2023-01-11T01:44:31.569Z,94
2023-01-11T01:45:31.252Z,94
2023-01-11T01:46:31.612Z,94
2023-01-11T01:47:31.556Z,95
2023-01-11T01:48:31.567Z,95
2023-01-11T01:49:31.324Z,95
2023-01-11T01:50:31.490Z,95
2023-01-11T01:51:31.584Z,95
2023-01-11T01:52:31.553Z,95
2023-01-11T01:53:31.241Z,95
2023-01-11T01:54:31.613Z,95
2023-01-11T01:55:31.382Z,95
2023-01-11T01:56:31.379Z,95
2023-01-11T01:57:31.129Z,95
2023-01-11T01:58:31.355Z,95
2023-01-11T01:59:31.410Z,95
2023-01-11T02:00:31.384Z,95
2023-01-11T02:01:31.184Z,95
2023-01-11T02:02:31.429Z,95
2023-01-11T02:03:31.390Z,95
2023-01-11T02:04:31.400Z,95
2023-01-11T02:05:31.162Z,95
2023-01-11T02:06:31.483Z,95
2023-01-11T02:07:31.430Z,95
2023-01-11T02:08:31.387Z,95
2023-01-11T02:09:31.115Z,95
2023-01-11T02:10:31.411Z,95
2023-01-11T02:11:31.452Z,95
2023-01-11T02:12:31.406Z,95
2023-01-11T02:13:31.114Z,95
2023-01-11T02:14:31.395Z,95
2023-01-11T02:15:31.383Z,95
2023-01-11T02:16:31.367Z,95
2023-01-11T02:17:31.129Z,95
2023-01-11T02:18:31.372Z,95
2023-01-11T02:19:31.361Z,95
2023-01-11T02:20:31.362Z,95
2023-01-11T02:21:31.140Z,95
2023-01-11T02:22:31.372Z,95
2023-01-11T02:23:31.386Z,95
2023-01-11T02:24:31.400Z,95
2023-01-11T02:25:31.188Z,95
2023-01-11T02:26:31.413Z,95
2023-01-11T02:27:31.396Z,95
2023-01-11T02:28:31.373Z,95
2023-01-11T02:29:31.134Z,95
2023-01-11T02:30:31.388Z,95
2023-01-11T02:31:31.422Z,95
2023-01-11T02:32:31.413Z,95
2023-01-11T02:33:31.103Z,95
2023-01-11T02:34:31.378Z,94
2023-01-11T02:35:31.355Z,94
2023-01-11T02:36:31.392Z,94
2023-01-11T02:37:31.142Z,94
2023-01-11T02:38:31.372Z,94
2023-01-11T02:39:31.446Z,94
2023-01-11T02:40:31.393Z,94
2023-01-11T02:41:31.112Z,94
2023-01-11T02:42:31.368Z,94
2023-01-11T02:43:31.380Z,93
2023-01-11T02:44:31.344Z,93
2023-01-11T02:45:31.229Z,93
2023-01-11T02:46:31.457Z,92
2023-01-11T02:47:31.391Z,92
2023-01-11T02:48:31.388Z,92
2023-01-11T02:49:31.115Z,92
2023-01-11T02:50:31.409Z,92
2023-01-11T02:51:31.397Z,92
2023-01-11T02:52:31.382Z,92
2023-01-11T02:53:31.093Z,91
2023-01-11T02:54:31.387Z,91
2023-01-11T02:55:31.395Z,91
2023-01-11T02:56:31.355Z,91
2023-01-11T02:57:31.119Z,91
2023-01-11T02:58:31.374Z,91
2023-01-11T02:59:31.413Z,91
2023-01-11T03:00:31.369Z,91
2023-01-11T03:01:31.217Z,91
2023-01-11T03:02:31.512Z,91
2023-01-11T03:03:31.394Z,91
2023-01-11T03:04:31.403Z,91
2023-01-11T03:05:31.102Z,91
2023-01-11T03:06:31.416Z,91
2023-01-11T03:07:31.386Z,91
2023-01-11T03:08:31.369Z,91
2023-01-11T03:09:31.100Z,91
2023-01-11T03:10:31.504Z,91
2023-01-11T03:11:31.492Z,91
2023-01-11T03:12:31.507Z,91
2023-01-11T03:13:31.190Z,91
2023-01-11T03:14:31.524Z,91
2023-01-11T03:15:31.487Z,91
2023-01-11T03:16:31.595Z,91
2023-01-11T03:17:31.063Z,91
2023-01-11T03:18:31.375Z,91
2023-01-11T03:19:31.370Z,91
2023-01-11T03:20:31.438Z,92
2023-01-11T03:21:31.186Z,92
2023-01-11T03:22:31.452Z,92
2023-01-11T03:23:31.438Z,92
2023-01-11T03:24:31.367Z,92
2023-01-11T03:25:31.189Z,92
2023-01-11T03:26:31.479Z,92
2023-01-11T03:27:31.506Z,92
2023-01-11T03:28:31.515Z,92
2023-01-11T03:29:31.086Z,92
2023-01-11T03:30:31.461Z,92
2023-01-11T03:31:31.435Z,92
2023-01-11T03:32:31.539Z,92
2023-01-11T03:33:31.044Z,92
2023-01-11T03:34:31.522Z,92
2023-01-11T03:35:31.376Z,92
2023-01-11T03:36:31.506Z,92
2023-01-11T03:37:31.208Z,92
2023-01-11T03:38:31.357Z,92
2023-01-11T03:39:31.370Z,92
2023-01-11T03:40:31.629Z,92
2023-01-11T03:41:31.103Z,92
2023-01-11T03:42:31.429Z,92
2023-01-11T03:43:31.514Z,92
2023-01-11T03:44:31.470Z,92
2023-01-11T03:45:31.176Z,92
2023-01-11T03:46:31.458Z,92
2023-01-11T03:47:31.385Z,92
2023-01-11T03:48:31.355Z,92
2023-01-11T03:49:31.015Z,92
2023-01-11T03:50:31.519Z,92
2023-01-11T03:51:31.409Z,91
2023-01-11T03:52:31.343Z,91
2023-01-11T03:53:31.045Z,91
2023-01-11T03:54:31.380Z,91
2023-01-11T03:55:31.386Z,91
2023-01-11T03:56:31.364Z,91
2023-01-11T03:57:31.057Z,91
2023-01-11T03:58:31.401Z,91
2023-01-11T03:59:31.378Z,91
2023-01-11T04:00:32.735Z,91
2023-01-11T04:01:31.068Z,91
2023-01-11T04:02:31.360Z,91
2023-01-11T04:03:31.394Z,91
2023-01-11T04:04:31.430Z,91
2023-01-11T04:05:31.055Z,91
2023-01-11T04:06:31.543Z,91
2023-01-11T04:07:31.382Z,91
2023-01-11T04:08:31.382Z,91
2023-01-11T04:09:31.046Z,91
2023-01-11T04:10:31.371Z,91
2023-01-11T04:11:31.380Z,92
2023-01-11T04:12:31.373Z,92
2023-01-11T04:13:31.098Z,92
2023-01-11T04:14:31.372Z,92
2023-01-11T04:15:31.399Z,91
2023-01-11T04:16:31.482Z,91
2023-01-11T04:17:31.009Z,91
2023-01-11T04:18:31.384Z,91
2023-01-11T04:19:31.385Z,91
2023-01-11T04:20:31.513Z,91
2023-01-11T04:21:31.036Z,91
2023-01-11T04:22:31.451Z,91
2023-01-11T04:23:31.382Z,91
2023-01-11T04:24:31.366Z,91
2023-01-11T04:25:31.047Z,92
2023-01-11T04:26:31.383Z,92
2023-01-11T04:27:31.363Z,91
2023-01-11T04:28:31.365Z,91
2023-01-11T04:29:31.090Z,92
2023-01-11T04:30:31.372Z,92
2023-01-11T04:31:31.408Z,92
2023-01-11T04:32:31.420Z,92
2023-01-11T04:33:31.083Z,92
2023-01-11T04:34:31.374Z,92
2023-01-11T04:35:31.397Z,92
2023-01-11T04:36:31.392Z,92
2023-01-11T04:37:30.997Z,92
2023-01-11T04:38:31.380Z,92
2023-01-11T04:39:31.425Z,92
2023-01-11T04:40:31.476Z,92
2023-01-11T04:41:31.021Z,92
2023-01-11T04:42:31.395Z,92
2023-01-11T04:43:31.368Z,92
2023-01-11T04:44:31.323Z,93
2023-01-11T04:45:31.134Z,93
2023-01-11T04:46:31.415Z,93
2023-01-11T04:47:31.464Z,93
2023-01-11T04:48:31.372Z,93
2023-01-11T04:49:31.191Z,93
2023-01-11T04:50:31.453Z,93
2023-01-11T04:51:31.353Z,93
2023-01-11T04:52:31.371Z,93
2023-01-11T04:53:31.000Z,93
2023-01-11T04:54:31.374Z,93
2023-01-11T04:55:31.355Z,93
2023-01-11T04:56:31.369Z,94
2023-01-11T04:57:31.082Z,94
2023-01-11T04:58:31.406Z,94
2023-01-11T04:59:31.347Z,94
2023-01-11T05:00:31.361Z,94
2023-01-11T05:01:31.149Z,94
2023-01-11T05:02:31.390Z,94
2023-01-11T05:03:32.417Z,94
2023-01-11T05:04:43.029Z,93
2023-01-11T05:05:47.028Z,93
2023-01-11T05:06:51.058Z,93
2023-01-11T05:07:55.076Z,93
2023-01-11T05:08:58.998Z,93
2023-01-11T05:10:03.047Z,93
2023-01-11T05:11:07.051Z,93
2023-01-11T05:12:11.060Z,93
2023-01-11T05:13:15.038Z,93
2023-01-11T05:14:19.043Z,93
2023-01-11T05:15:23.054Z,93
2023-01-11T05:16:27.081Z,93
2023-01-11T05:17:31.073Z,93
2023-01-11T05:18:31.354Z,93
2023-01-11T05:19:31.397Z,93
2023-01-11T05:20:31.400Z,93
2023-01-11T05:21:30.991Z,93
2023-01-11T05:22:31.417Z,93
2023-01-11T05:23:31.375Z,93
2023-01-11T05:24:31.375Z,93
2023-01-11T05:25:31.012Z,93
2023-01-11T05:26:33.233Z,93
2023-01-11T05:27:31.381Z,93
2023-01-11T05:28:31.382Z,93
2023-01-11T05:29:31.025Z,92
2023-01-11T05:30:31.369Z,92
2023-01-11T05:31:31.410Z,92
2023-01-11T05:32:31.364Z,92
2023-01-11T05:33:30.994Z,92
2023-01-11T05:34:31.401Z,92
2023-01-11T05:35:31.427Z,92
2023-01-11T05:36:31.348Z,92
2023-01-11T05:37:31.016Z,92
2023-01-11T05:38:31.394Z,92
2023-01-11T05:39:31.379Z,92
2023-01-11T05:40:31.327Z,92
2023-01-11T05:41:30.982Z,92
2023-01-11T05:42:31.359Z,91
2023-01-11T05:43:31.381Z,91
2023-01-11T05:44:31.389Z,91
2023-01-11T05:45:31.056Z,91
2023-01-11T05:46:31.372Z,91
2023-01-11T05:47:31.355Z,91
2023-01-11T05:48:31.335Z,91
2023-01-11T05:49:31.044Z,91
2023-01-11T05:50:31.344Z,91
2023-01-11T05:51:31.393Z,91
2023-01-11T05:52:31.392Z,91
2023-01-11T05:53:30.976Z,91
2023-01-11T05:54:31.382Z,91
2023-01-11T05:55:31.470Z,90
2023-01-11T05:56:31.341Z,90
2023-01-11T05:57:30.949Z,90
2023-01-11T05:58:31.367Z,90
2023-01-11T05:59:32.280Z,90
2023-01-11T06:00:31.371Z,91
2023-01-11T06:01:30.968Z,91
2023-01-11T06:02:31.492Z,91
2023-01-11T06:03:31.353Z,91
2023-01-11T06:04:31.414Z,91
2023-01-11T06:05:30.980Z,90
2023-01-11T06:06:31.367Z,90
2023-01-11T06:07:32.363Z,90
2023-01-11T06:08:31.380Z,91
2023-01-11T06:09:31.007Z,91
2023-01-11T06:10:31.368Z,90
2023-01-11T06:11:31.377Z,90
2023-01-11T06:12:31.360Z,90
2023-01-11T06:13:30.982Z,91
2023-01-11T06:14:31.387Z,90
2023-01-11T06:15:31.342Z,90
2023-01-11T06:16:31.418Z,90
2023-01-11T06:17:30.989Z,90
2023-01-11T06:18:31.392Z,90
2023-01-11T06:19:31.343Z,90
2023-01-11T06:20:31.429Z,90
2023-01-11T06:21:30.999Z,90
2023-01-11T06:22:31.362Z,90
2023-01-11T06:23:31.370Z,91
2023-01-11T06:24:31.358Z,91
2023-01-11T06:25:30.949Z,91
2023-01-11T06:26:31.382Z,90
2023-01-11T06:27:31.350Z,90
2023-01-11T06:28:31.394Z,90
2023-01-11T06:29:30.937Z,90
2023-01-11T06:30:31.461Z,90
2023-01-11T06:31:31.370Z,90
2023-01-11T06:32:31.364Z,90
2023-01-11T06:33:30.993Z,90
2023-01-11T06:34:31.368Z,90
2023-01-11T06:35:31.329Z,90
2023-01-11T06:36:31.367Z,90
2023-01-11T06:37:30.989Z,90
2023-01-11T06:38:31.345Z,90
2023-01-11T06:39:31.370Z,89
2023-01-11T06:40:31.413Z,89
2023-01-11T06:41:30.985Z,90
2023-01-11T06:42:31.377Z,90
2023-01-11T06:43:31.351Z,90
2023-01-11T06:44:31.364Z,90
2023-01-11T06:45:30.911Z,90
2023-01-11T06:46:31.442Z,90
2023-01-11T06:47:31.375Z,90
2023-01-11T06:48:31.386Z,90
2023-01-11T06:49:30.966Z,90
2023-01-11T06:50:31.460Z,90
2023-01-11T06:51:31.384Z,90
2023-01-11T06:52:31.383Z,90
2023-01-11T06:53:30.939Z,90
2023-01-11T06:54:31.349Z,90
2023-01-11T06:55:31.368Z,90
2023-01-11T06:56:31.357Z,89
2023-01-11T06:57:30.931Z,89
2023-01-11T06:58:31.358Z,89
2023-01-11T06:59:31.355Z,89
2023-01-11T07:00:31.458Z,89
2023-01-11T07:01:31.008Z,89
2023-01-11T07:02:31.421Z,89
2023-01-11T07:03:31.361Z,89
2023-01-11T07:04:31.475Z,89
2023-01-11T07:05:31.065Z,89
2023-01-11T07:06:31.365Z,89
2023-01-11T07:07:31.345Z,89
2023-01-11T07:08:31.349Z,89
2023-01-11T07:09:30.982Z,89
2023-01-11T07:10:31.354Z,89
2023-01-11T07:11:31.335Z,89
2023-01-11T07:12:31.367Z,89
2023-01-11T07:13:30.945Z,89
2023-01-11T07:14:31.361Z,89
2023-01-11T07:15:31.339Z,89
2023-01-11T07:16:31.356Z,89
2023-01-11T07:17:30.905Z,89
2023-01-11T07:18:31.361Z,89
2023-01-11T07:19:31.337Z,89
2023-01-11T07:20:31.362Z,89
2023-01-11T07:21:30.934Z,90
2023-01-11T07:22:31.336Z,90
2023-01-11T07:23:31.373Z,90
2023-01-11T07:24:31.370Z,90
2023-01-11T07:25:30.981Z,90
2023-01-11T07:26:31.502Z,90
2023-01-11T07:27:31.374Z,90
2023-01-11T07:28:31.356Z,91
2023-01-11T07:29:30.955Z,91
2023-01-11T07:30:31.359Z,91
2023-01-11T07:31:31.518Z,91
2023-01-11T07:32:31.352Z,91
2023-01-11T07:33:30.896Z,91
2023-01-11T07:34:31.334Z,91
2023-01-11T07:35:31.357Z,91
2023-01-11T07:36:31.358Z,91
2023-01-11T07:37:30.925Z,92
2023-01-11T07:38:31.333Z,92
2023-01-11T07:39:42.852Z,92
2023-01-11T07:40:31.372Z,93
2023-01-11T07:41:30.940Z,93
2023-01-11T07:42:31.330Z,93
2023-01-11T07:43:31.374Z,93
2023-01-11T07:44:31.328Z,93
2023-01-11T07:45:44.640Z,94
2023-01-11T07:46:31.457Z,94
2023-01-11T07:47:31.357Z,94
2023-01-11T07:48:31.422Z,94
2023-01-11T07:49:30.877Z,94
2023-01-11T07:50:31.347Z,94
2023-01-11T07:51:31.362Z,94
2023-01-11T07:52:31.333Z,94
2023-01-11T07:53:30.943Z,94
2023-01-11T07:54:31.355Z,94
2023-01-11T07:55:31.347Z,94
2023-01-11T07:56:31.353Z,95
2023-01-11T07:57:30.935Z,95
2023-01-11T07:58:31.436Z,95
2023-01-11T07:59:31.352Z,95
2023-01-11T08:00:31.379Z,95
2023-01-11T08:01:30.893Z,95
2023-01-11T08:02:31.423Z,95
2023-01-11T08:03:31.476Z,95
2023-01-11T08:04:31.342Z,95
2023-01-11T08:05:30.909Z,95
2023-01-11T08:06:31.417Z,95
2023-01-11T08:07:31.334Z,95
2023-01-11T08:08:31.375Z,95
2023-01-11T08:09:30.902Z,96
2023-01-11T08:10:31.353Z,96
2023-01-11T08:11:31.355Z,96
2023-01-11T08:12:31.380Z,96
2023-01-11T08:13:30.956Z,96
2023-01-11T08:14:31.387Z,96
2023-01-11T08:15:31.439Z,96
2023-01-11T08:16:31.373Z,96
2023-01-11T08:17:30.934Z,96
2023-01-11T08:18:31.375Z,96
2023-01-11T08:19:31.344Z,96
2023-01-11T08:20:31.406Z,96
2023-01-11T08:21:30.876Z,96
2023-01-11T08:22:31.359Z,96
2023-01-11T08:23:31.336Z,96
2023-01-11T08:24:31.361Z,96
2023-01-11T08:25:31.047Z,95
2023-01-11T08:26:31.335Z,95
2023-01-11T08:27:31.367Z,95
2023-01-11T08:28:31.345Z,95
2023-01-11T08:29:30.894Z,96
2023-01-11T08:30:31.388Z,96
2023-01-11T08:31:31.348Z,96
2023-01-11T08:32:31.358Z,96
2023-01-11T08:33:30.885Z,96
2023-01-11T08:34:32.530Z,96
2023-01-11T08:35:31.349Z,96
2023-01-11T08:36:31.363Z,96
2023-01-11T08:37:30.848Z,96
2023-01-11T08:38:31.357Z,96
2023-01-11T08:39:31.350Z,96
2023-01-11T08:40:31.373Z,96
2023-01-11T08:41:30.908Z,96
2023-01-11T08:42:31.368Z,96
2023-01-11T08:43:31.369Z,96
2023-01-11T08:44:38.377Z,96
2023-01-11T08:45:30.885Z,96
2023-01-11T08:46:31.378Z,96
2023-01-11T08:47:31.449Z,97
2023-01-11T08:48:31.353Z,96
2023-01-11T08:49:31.011Z,96
2023-01-11T08:50:31.343Z,96
2023-01-11T08:51:31.393Z,96
2023-01-11T08:52:31.387Z,96
2023-01-11T08:53:30.873Z,96
2023-01-11T08:54:31.380Z,96
2023-01-11T08:55:31.373Z,96
2023-01-11T08:56:31.394Z,96
2023-01-11T08:57:30.892Z,96
2023-01-11T08:58:31.367Z,96
2023-01-11T08:59:31.432Z,96
2023-01-11T09:00:31.384Z,96
2023-01-11T09:01:30.927Z,96
2023-01-11T09:02:31.432Z,96
2023-01-11T09:03:31.481Z,96
2023-01-11T09:04:31.384Z,96
2023-01-11T09:05:30.852Z,96
2023-01-11T09:06:31.366Z,96
2023-01-11T09:07:31.369Z,96
2023-01-11T09:08:31.430Z,96
2023-01-11T09:09:30.854Z,96
2023-01-11T09:10:31.383Z,96
2023-01-11T09:11:31.352Z,96
2023-01-11T09:12:31.355Z,96
2023-01-11T09:13:30.883Z,96
2023-01-11T09:14:31.393Z,96
2023-01-11T09:15:31.373Z,96
2023-01-11T09:16:31.343Z,96
2023-01-11T09:17:30.894Z,96
2023-01-11T09:18:31.354Z,96
2023-01-11T09:19:31.362Z,97
2023-01-11T09:20:31.392Z,97
2023-01-11T09:21:30.878Z,97
2023-01-11T09:22:31.311Z,96
2023-01-11T09:23:31.337Z,96
2023-01-11T09:24:31.456Z,97
2023-01-11T09:25:30.948Z,97
2023-01-11T09:26:31.342Z,97
2023-01-11T09:27:31.354Z,97
2023-01-11T09:28:31.349Z,97
2023-01-11T09:29:30.919Z,97
2023-01-11T09:30:31.439Z,97
2023-01-11T09:31:31.391Z,97
2023-01-11T09:32:31.325Z,97
2023-01-11T09:33:30.879Z,97
2023-01-11T09:34:31.366Z,97
2023-01-11T09:35:31.348Z,97
2023-01-11T09:36:31.360Z,97
2023-01-11T09:37:30.852Z,97
2023-01-11T09:38:31.356Z,97
2023-01-11T09:39:31.348Z,97
2023-01-11T09:40:31.347Z,97
2023-01-11T09:41:30.824Z,97
2023-01-11T09:42:31.481Z,97
2023-01-11T09:43:31.328Z,97
2023-01-11T09:44:31.295Z,97
2023-01-11T09:45:30.881Z,97
2023-01-11T09:46:31.423Z,97
2023-01-11T09:47:31.376Z,97
2023-01-11T09:48:31.338Z,97
2023-01-11T09:49:30.862Z,97
2023-01-11T09:50:31.361Z,97
2023-01-11T09:51:31.336Z,97
2023-01-11T09:52:31.326Z,96
2023-01-11T09:53:30.861Z,97
2023-01-11T09:54:31.419Z,97
2023-01-11T09:55:31.353Z,97
2023-01-11T09:56:31.358Z,97
2023-01-11T09:57:30.838Z,97
2023-01-11T09:58:32.635Z,97
2023-01-11T09:59:31.318Z,97
2023-01-11T10:00:31.387Z,97
2023-01-11T10:01:30.850Z,97
2023-01-11T10:02:31.341Z,97
2023-01-11T10:03:31.373Z,97
2023-01-11T10:04:31.409Z,97
2023-01-11T10:05:30.871Z,97
2023-01-11T10:06:31.395Z,97
2023-01-11T10:07:31.343Z,97
2023-01-11T10:18:25.681Z,97
2023-01-11T10:18:29.105Z,97
2023-01-11T10:18:41.379Z,97
2023-01-11T10:18:41.584Z,97
2023-01-11T10:18:46.102Z,97
2023-01-11T10:19:39.494Z,97
2023-01-11T10:20:31.369Z,97
2023-01-11T10:21:30.827Z,97
2023-01-11T10:22:31.405Z,96
2023-01-11T10:23:31.351Z,96
2023-01-11T10:24:31.358Z,97
2023-01-11T10:25:30.816Z,97
2023-01-11T10:26:31.346Z,97
2023-01-11T10:27:31.454Z,97
2023-01-11T10:28:31.355Z,97
2023-01-11T10:29:30.809Z,97
2023-01-11T10:30:31.360Z,97
2023-01-11T10:31:31.464Z,97
2023-01-11T10:32:31.388Z,97
2023-01-11T10:33:30.837Z,97
2023-01-11T10:34:31.344Z,97
2023-01-11T10:35:31.367Z,97
2023-01-11T10:36:31.318Z,97
2023-01-11T10:37:30.827Z,97
2023-01-11T10:38:31.387Z,97
2023-01-11T10:39:31.322Z,97
2023-01-11T10:40:31.414Z,96
2023-01-11T10:41:30.796Z,97
2023-01-11T10:42:31.375Z,96
2023-01-11T10:43:31.370Z,96
2023-01-11T10:44:31.330Z,96
2023-01-11T10:45:30.847Z,97
2023-01-11T10:46:31.365Z,97
2023-01-11T10:47:31.326Z,97
2023-01-11T10:48:31.313Z,97
2023-01-11T10:49:32.193Z,98
2023-01-11T10:50:31.353Z,98
2023-01-11T10:51:31.323Z,98
2023-01-11T10:52:31.325Z,98
2023-01-11T10:53:30.840Z,98
2023-01-11T10:54:31.368Z,98
2023-01-11T10:56:31.338Z,98
2023-01-11T10:57:30.840Z,98
2023-01-11T10:58:31.355Z,98
2023-01-11T10:59:31.332Z,97
2023-01-11T11:00:31.466Z,97
2023-01-11T11:01:30.782Z,97
2023-01-11T11:02:31.371Z,97
2023-01-11T11:03:31.329Z,97
2023-01-11T11:04:31.354Z,97
2023-01-11T11:05:30.827Z,97
2023-01-11T11:06:31.458Z,97
2023-01-11T11:07:31.337Z,97
2023-01-11T11:08:31.390Z,97
2023-01-11T11:09:30.868Z,97
2023-01-11T11:10:31.352Z,97
2023-01-11T11:11:32.351Z,97
2023-01-11T11:12:31.324Z,97
2023-01-11T11:13:30.783Z,97
2023-01-11T11:14:31.350Z,97
2023-01-11T11:15:31.356Z,97
2023-01-11T11:16:31.417Z,97
2023-01-11T11:17:30.772Z,97
2023-01-11T11:18:31.355Z,97
2023-01-11T11:19:31.405Z,97
2023-01-11T11:20:31.291Z,97
2023-01-11T11:21:30.806Z,97
2023-01-11T11:22:31.385Z,97
2023-01-11T11:23:31.336Z,97
2023-01-11T11:24:31.348Z,97
2023-01-11T11:25:30.821Z,97
2023-01-11T11:26:31.309Z,97
2023-01-11T11:27:31.311Z,97
2023-01-11T11:28:31.391Z,97
2023-01-11T11:29:30.931Z,97
2023-01-11T11:30:31.356Z,97
2023-01-11T11:31:31.364Z,97
2023-01-11T11:32:31.366Z,96
2023-01-11T11:33:30.726Z,96
2023-01-11T11:34:31.298Z,96
2023-01-11T11:35:31.313Z,97
2023-01-11T11:36:31.343Z,97
2023-01-11T11:37:30.796Z,97
2023-01-11T11:38:31.350Z,97
2023-01-11T11:39:31.336Z,97
2023-01-11T11:40:31.389Z,97
2023-01-11T11:41:30.809Z,97
2023-01-11T11:42:31.323Z,97
2023-01-11T11:43:31.357Z,97
2023-01-11T11:44:31.318Z,97
2023-01-11T11:45:30.878Z,97
2023-01-11T11:46:31.359Z,97
2023-01-11T11:47:31.321Z,97
2023-01-11T11:48:31.312Z,97
2023-01-11T11:49:30.729Z,97
2023-01-11T11:50:44.123Z,97
2023-01-11T11:51:31.332Z,97
2023-01-11T11:52:31.410Z,97
2023-01-11T11:53:30.748Z,97
2023-01-11T11:54:31.335Z,97
2023-01-11T11:55:31.330Z,97
2023-01-11T11:56:31.305Z,97
2023-01-11T11:57:30.895Z,97
2023-01-11T11:58:31.326Z,97
2023-01-11T11:59:31.301Z,98
2023-01-11T12:00:31.313Z,97
2023-01-11T12:01:30.782Z,97
2023-01-11T12:02:31.465Z,97
2023-01-11T12:03:31.327Z,97
2023-01-11T12:04:31.293Z,97
2023-01-11T12:05:30.764Z,97
2023-01-11T12:06:31.327Z,97
2023-01-11T12:07:31.563Z,97
2023-01-11T12:08:31.354Z,97
2023-01-11T12:09:30.864Z,97
2023-01-11T12:10:31.324Z,97
2023-01-11T12:11:31.345Z,97
2023-01-11T12:12:31.319Z,97
2023-01-11T12:13:30.829Z,97
2023-01-11T12:14:31.345Z,97
2023-01-11T12:15:31.319Z,97
2023-01-11T12:16:31.382Z,97
2023-01-11T12:17:30.725Z,97
2023-01-11T12:18:31.351Z,97
2023-01-11T12:19:31.299Z,97
2023-01-11T12:20:31.358Z,97
2023-01-11T12:21:30.817Z,97
2023-01-11T12:22:31.341Z,97
2023-01-11T12:23:31.373Z,97
2023-01-11T12:24:31.309Z,97
2023-01-11T12:25:30.765Z,97
2023-01-11T12:26:31.328Z,97
2023-01-11T12:27:31.303Z,97
2023-01-11T12:28:31.318Z,97
2023-01-11T12:29:30.727Z,97
2023-01-11T12:30:31.488Z,97
2023-01-11T12:31:31.327Z,97
2023-01-11T12:32:31.364Z,97
2023-01-11T12:33:30.722Z,97
2023-01-11T12:34:31.335Z,97
2023-01-11T12:35:31.370Z,97
2023-01-11T12:36:31.351Z,97
2023-01-11T12:37:30.719Z,97
2023-01-11T12:38:31.346Z,97
2023-01-11T12:39:31.344Z,97
2023-01-11T12:40:31.322Z,97
2023-01-11T12:41:30.734Z,97
2023-01-11T12:42:31.333Z,97
2023-01-11T12:43:31.299Z,97
2023-01-11T12:44:31.360Z,97
2023-01-11T12:45:30.692Z,97
2023-01-11T12:46:31.393Z,97
2023-01-11T12:47:31.286Z,97
2023-01-11T12:48:31.386Z,97
2023-01-11T12:49:30.699Z,97
2023-01-11T12:50:31.334Z,97
2023-01-11T12:51:31.323Z,97
2023-01-11T12:52:31.352Z,97
2023-01-11T12:53:30.685Z,97
2023-01-11T12:54:31.327Z,97
2023-01-11T12:55:31.316Z,97
2023-01-11T12:56:31.325Z,97
2023-01-11T12:57:30.729Z,97
2023-01-11T12:58:31.322Z,97
2023-01-11T12:59:31.359Z,97
2023-01-11T13:00:31.334Z,97
2023-01-11T13:01:30.790Z,97
2023-01-11T13:02:31.467Z,97
2023-01-11T13:03:31.311Z,97
2023-01-11T13:04:31.343Z,97
2023-01-11T13:05:30.703Z,97
2023-01-11T13:06:31.304Z,97
2023-01-11T13:07:31.396Z,97
2023-01-11T13:08:31.386Z,97
2023-01-11T13:09:30.647Z,97
2023-01-11T13:10:31.341Z,97
2023-01-11T13:11:31.352Z,97
2023-01-11T13:12:31.327Z,97
2023-01-11T13:13:30.673Z,97
2023-01-11T13:14:31.339Z,97
2023-01-11T13:15:34.262Z,97
2023-01-11T13:16:31.400Z,97
2023-01-11T13:17:30.677Z,97
2023-01-11T13:18:31.313Z,97
2023-01-11T13:19:31.334Z,97
2023-01-11T13:20:34.199Z,97
2023-01-11T13:21:30.646Z,97
2023-01-11T13:22:31.331Z,97
2023-01-11T13:23:31.321Z,97
2023-01-11T13:24:31.401Z,97
2023-01-11T13:25:30.602Z,97
2023-01-11T13:26:31.343Z,97
2023-01-11T13:27:31.316Z,97
2023-01-11T13:28:31.337Z,97
2023-01-11T13:29:30.673Z,97
2023-01-11T13:30:31.356Z,97
2023-01-11T13:31:31.343Z,97
2023-01-11T13:32:31.334Z,97
2023-01-11T13:33:30.662Z,97
2023-01-11T13:34:31.351Z,97
2023-01-11T13:35:31.309Z,97
2023-01-11T13:36:31.316Z,97
2023-01-11T13:37:30.676Z,97
2023-01-11T13:38:32.985Z,97
2023-01-11T13:39:31.389Z,97
2023-01-11T13:40:31.286Z,97
2023-01-11T13:41:30.668Z,97
2023-01-11T13:42:31.375Z,97
2023-01-11T13:43:31.290Z,97
2023-01-11T13:44:31.252Z,97
2023-01-11T13:45:30.664Z,97
2023-01-11T13:46:31.419Z,97
2023-01-11T13:47:31.332Z,97
2023-01-11T13:48:31.303Z,97
2023-01-11T13:49:30.653Z,97
2023-01-11T13:50:31.360Z,97
2023-01-11T13:51:31.419Z,97
2023-01-11T13:52:31.307Z,97
2023-01-11T13:53:30.633Z,97
2023-01-11T13:54:31.368Z,97
2023-01-11T13:55:31.308Z,97
2023-01-11T13:56:31.331Z,97
2023-01-11T13:57:30.611Z,97
2023-01-11T13:58:31.309Z,97
2023-01-11T13:59:31.359Z,97
2023-01-11T14:00:31.312Z,97
2023-01-11T14:01:30.712Z,97
2023-01-11T14:02:31.278Z,97
2023-01-11T14:03:31.400Z,97
2023-01-11T14:04:31.303Z,97
2023-01-11T14:05:30.642Z,96
2023-01-11T14:06:31.321Z,96
2023-01-11T14:07:31.306Z,96
2023-01-11T14:08:31.326Z,97
2023-01-11T14:09:30.653Z,97
2023-01-11T14:10:31.317Z,97
2023-01-11T14:11:31.321Z,97
2023-01-11T14:12:31.354Z,97
2023-01-11T14:13:30.744Z,97
2023-01-11T14:14:31.332Z,97
2023-01-11T14:15:31.540Z,97
2023-01-11T14:16:31.398Z,97
2023-01-11T14:17:30.634Z,97
2023-01-11T14:18:31.311Z,97
2023-01-11T14:19:31.367Z,97
2023-01-11T14:20:31.306Z,97
2023-01-11T14:21:30.629Z,97
2023-01-11T14:22:31.329Z,97
2023-01-11T14:23:31.335Z,97
2023-01-11T14:24:31.308Z,97
2023-01-11T14:25:31.340Z,97